KBIS/BIS METAR and TAF weather

Enter ICAO airport designator
Station Type Date Time Source
KBIS METAR 2018/07/21 03:52 UTC NOAA

KBIS 210352Z 07005KT 10SM CLR 18/14 A3008 RMK AO2 SLP182 T01830144 $


Station Type Date Time Source
KBIS Decoded METAR 2018/07/21 03:52 UTC NOAA

BISMARCK MUNICIPAL AIRPORT, ND, United States (KBIS) 46-47N 100-45W 503M
Jul 20, 2018 - 11:52 PM EDT / 2018.07.21 0352 UTC
Wind: from the ENE (070 degrees) at 6 MPH (5 KT):0
Visibility: 10 mile(s):0
Sky conditions: clear
Temperature: 64.9 F (18.3 C)
Dew Point: 57.9 F (14.4 C)
Relative Humidity: 77%
Pressure (altimeter): 30.08 in. Hg (1018 hPa)
ob: KBIS 210352Z 07005KT 10SM CLR 18/14 A3008 RMK AO2 SLP182 T01830144
cycle: 4

Station Type Date Time Source
KBIS TAF 2018/07/20 18:27 UTC NOAA

TAF KBIS 201725Z 2018/2118 35010KT P6SM SCT045
FM202300 04007KT P6SM FEW060
FM210600 VRB04KT P6SM SKC
FM211500 12006KT P6SM FEW250


Example: see airport list